This is the latest recevied weather packets stored in our database for station/object SP2WPY-13. If no packets are shown the sender has not sent any weather packets the latest 10 day(s).
| Time | Temp. | Humidity | Pressure | Rain* | Wind** | Luminosity | Snow |
|---|---|---|---|---|---|---|---|
| 1788023731 | 19.44° C | 100% | 1013.9 hPa | - | - | - | - |
| 1788023412 | 20° C | 100% | 1013.9 hPa | - | - | - | - |
| 1788023137 | 20.56° C | 99% | 1013.8 hPa | - | - | - | - |
| 1788022818 | 21.67° C | 96% | 1013.8 hPa | - | - | - | - |
| 1788022543 | 21.67° C | 95% | 1013.7 hPa | - | - | - | - |
| 1788022224 | 21.67° C | 95% | 1013.8 hPa | - | - | - | - |
| 1788021905 | 21.67° C | 94% | 1013.9 hPa | - | - | - | - |
| 1788021631 | 22.22° C | 92% | 1013.8 hPa | - | - | - | - |
| 1788021311 | 22.22° C | 91% | 1013.8 hPa | - | - | - | - |
| 1788021037 | 22.22° C | 92% | 1013.7 hPa | - | - | - | - |
| 1788020717 | 22.22° C | 90% | 1013.8 hPa | - | - | - | - |
| 1788020443 | 22.78° C | 85% | 1013.7 hPa | - | - | - | - |
| 1788020123 | 23.33° C | 81% | 1013.7 hPa | - | - | - | - |
| 1788019803 | 24.44° C | 76% | 1013.6 hPa | - | - | - | - |
| 1788019529 | 25.56° C | 69% | 1013.7 hPa | - | - | - | - |
| 1788019212 | 26.11° C | 67% | 1013.7 hPa | - | - | - | - |
| 1788018936 | 25.56° C | 59% | 1013.6 hPa | - | - | - | - |
| 1788018617 | 26.11° C | 56% | 1013.5 hPa | - | - | - | - |
| 1788018344 | 25.56° C | 60% | 1013.6 hPa | - | - | - | - |
| 1788018021 | 25° C | 63% | 1013.5 hPa | - | - | - | - |
| 1788017702 | 24.44° C | 62% | 1013.5 hPa | - | - | - | - |
| 1788017425 | 25.56° C | 61% | 1013.5 hPa | - | - | - | - |
| 1788017107 | 24.44° C | 66% | 1013.5 hPa | - | - | - | - |
| 1788016832 | 23.89° C | 64% | 1013.4 hPa | - | - | - | - |
| 1788016512 | 24.44° C | 62% | 1013.5 hPa | - | - | - | - |
* Rain since midnight (hover to see other rain measurements)
** Current wind speed in m/s (hover to see current wind gust speed)